Mount Ephraim, NJ

11:43 PM EDT on September 04, 2015 (GMT -0400)
Nicholson Rd | | Change Station
CLOSE
Current Station
Personal Weather Station
Location: Audubon, NJ
Elevation: 56 ft
Nearby Weather Stations

Elev 56 ft 39.90 °N, 75.07 °W | Updated 2 seconds ago

Overcast
Overcast
73.8 °F
Feels Like 74 °F
N
0.0
Wind Variable Wind from SW
Gusts 1.0 mph

Today
High -- | Low -- °F
--% Chance of Precip.
Yesterday
High -- | Low -- °F
Precip. -- in
6:30 AM 7:27 PM
Waning Gibbous, 53% visible
Pressure 30.18 in
Visibility 10.0 miles
Clouds Overcast 2300 ft
Heat Index 74 °F
Dew Point 68 °F
Humidity 83%
Rainfall 0.00 in
Snow Depth Not available.
UV 0 out of 12
Pollen 9.80 out of 12
Air Quality Not available.
Flu Activity Not available.
SPECI KPHL 050324Z 07007KT 10SM OVC023 24/19 A3018 RMK AO2 T02440189 $
Pressure 30.18 in
Visibility 10.0 miles
Clouds Overcast 2300 ft
Heat Index 74 °F
Dew Point 68 °F
Humidity 83%
Rainfall 0.00 in
Snow Depth Not available.
UV 0 out of 12
Pollen 9.80 out of 12
Air Quality Not available.
Flu Activity Not available.
SPECI KPHL 050324Z 07007KT 10SM OVC023 24/19 A3018 RMK AO2 T02440189 $

10-Day Weather Forecast

×

Almanac

Astronomy

Sep. 04, 2015 Rise Set
Actual Time
Civil Twilight
Nautical Twilight
Astronomical Twilight
Moon
Length of Visible Light
Length of Day
Tomorrow will be .
, % of the Moon is Illuminated

Today's Extremes

State Highs State Lows

Community

WunderPhotos

Upload Photos

1,852,408 photos uploaded!

WunderBlogs® & News

Nearby

Air Quality

  Air Quality AQ Index Pollutant
Not available.

Snow Depth

Station Depth Elevation

Earthquake Activity

City Distance Mag. Time & Date
Minimum magnitude displayed is 2.5.

Coastal Water Temperatures

Place Temperature

Stations

Nearby Weather Stations

Station Location Temp. Windchill Dew Point Humidity Wind Precip. Elev Updated Type